Time;durP1;ratioP1;P1;durP2;ratioP2;P2;SDS_P1;SDS_P2;PMS_P1;PMS_P2;Temp;Humidity;BMP_temperature;BMP_pressure;BME280_temperature;BME280_humidity;BME280_pressure;Samples;Min_cycle;Max_cycle;Signal;HPM_P1;HPM_P2
2023/11/16 00:01:49;;;;;;;19.88;5.15;;;;;;;8.39;100.00;100945.22;4976973;28;20055;-79
2023/11/16 00:04:15;;;;;;;18.38;5.00;;;;;;;8.37;100.00;100941.09;4976082;28;20114;-79
2023/11/16 00:06:43;;;;;;;15.50;4.80;;;;;;;8.39;100.00;100944.41;4976569;28;20121;-78
2023/11/16 00:09:12;;;;;;;18.17;4.85;;;;;;;8.34;100.00;100925.72;4976739;28;20058;-78
2023/11/16 00:11:41;;;;;;;15.40;4.90;;;;;;;8.35;100.00;100928.19;4969640;28;20051;-77
2023/11/16 00:14:08;;;;;;;18.92;5.10;;;;;;;8.41;100.00;100932.06;4975590;28;20050;-78
2023/11/16 00:16:35;;;;;;;18.73;4.57;;;;;;;8.15;100.00;100936.88;4974960;28;20070;-78
2023/11/16 00:19:04;;;;;;;16.70;5.00;;;;;;;8.14;100.00;100936.06;4976865;28;20058;-77
2023/11/16 00:21:30;;;;;;;24.73;7.00;;;;;;;8.02;100.00;100928.50;4978589;28;20082;-79
2023/11/16 00:23:58;;;;;;;15.35;4.80;;;;;;;8.08;100.00;100923.56;4978944;28;20125;-78
2023/11/16 00:26:26;;;;;;;25.52;5.10;;;;;;;8.00;100.00;100920.81;4979378;28;20054;-78
2023/11/16 00:28:54;;;;;;;17.00;5.40;;;;;;;8.02;100.00;100942.34;4979296;28;20052;-78
2023/11/16 00:31:23;;;;;;;18.40;6.10;;;;;;;7.91;100.00;100934.63;4974336;28;20522;-78
2023/11/16 00:33:50;;;;;;;14.57;4.95;;;;;;;8.00;100.00;100939.06;4978858;28;20121;-79
2023/11/16 00:36:18;;;;;;;19.30;5.32;;;;;;;7.96;100.00;100937.66;4979002;28;20765;-79
2023/11/16 00:38:44;;;;;;;14.35;5.70;;;;;;;8.05;100.00;100930.81;4979774;28;20062;-79
2023/11/16 00:41:15;;;;;;;22.33;5.30;;;;;;;8.14;100.00;100930.84;4975293;28;20079;-78
2023/11/16 00:43:41;;;;;;;19.33;5.30;;;;;;;8.16;100.00;100936.75;4975275;28;20054;-77
2023/11/16 00:46:09;;;;;;;14.25;5.38;;;;;;;8.18;100.00;100940.06;4975946;28;20134;-78
2023/11/16 00:48:35;;;;;;;13.63;4.70;;;;;;;8.14;100.00;100919.59;4975249;28;20078;-79
2023/11/16 00:51:02;;;;;;;19.38;5.38;;;;;;;8.15;100.00;100923.84;4975266;28;20129;-78
2023/11/16 00:53:29;;;;;;;15.25;6.13;;;;;;;8.22;100.00;100931.00;4977610;28;20122;-78
2023/11/16 00:55:56;;;;;;;20.98;4.85;;;;;;;8.21;100.00;100931.97;4978503;28;20047;-79
2023/11/16 00:58:25;;;;;;;21.52;5.68;;;;;;;8.19;100.00;100933.06;4976997;28;20051;-79
2023/11/16 01:00:52;;;;;;;14.55;5.25;;;;;;;8.17;100.00;100935.78;4975303;28;20055;-79
2023/11/16 01:03:20;;;;;;;19.65;6.20;;;;;;;8.23;100.00;100932.66;4977875;28;20077;-79
2023/11/16 01:05:46;;;;;;;19.02;5.10;;;;;;;8.25;100.00;100922.91;4974853;28;20050;-79
2023/11/16 01:08:16;;;;;;;13.93;4.40;;;;;;;8.23;100.00;100930.06;4977542;28;20138;-80
2023/11/16 01:10:44;;;;;;;17.42;5.38;;;;;;;8.26;100.00;100927.19;4980499;28;20086;-79
2023/11/16 01:13:11;;;;;;;14.23;5.00;;;;;;;8.37;100.00;100921.06;4977710;28;20078;-79
2023/11/16 01:15:39;;;;;;;16.30;5.20;;;;;;;8.38;100.00;100922.72;4980306;28;20054;-80
2023/11/16 01:18:10;;;;;;;18.92;6.35;;;;;;;8.32;100.00;100918.84;4979563;28;20081;-79
2023/11/16 01:20:37;;;;;;;13.65;4.40;;;;;;;8.35;100.00;100932.59;4969499;28;20610;-79
2023/11/16 01:23:11;;;;;;;15.70;4.90;;;;;;;8.43;100.00;100923.13;4972123;28;20061;-78
2023/11/16 01:25:40;;;;;;;17.38;5.47;;;;;;;8.47;100.00;100926.28;4978508;28;20050;-78
2023/11/16 01:28:07;;;;;;;20.50;5.65;;;;;;;8.55;100.00;100919.41;4977749;28;20059;-78
2023/11/16 01:30:34;;;;;;;15.73;4.70;;;;;;;8.60;100.00;100921.63;4981774;28;20110;-80
2023/11/16 01:33:04;;;;;;;15.38;5.43;;;;;;;8.58;100.00;100913.09;4977492;28;20150;-78
2023/11/16 01:35:34;;;;;;;18.67;5.13;;;;;;;8.57;100.00;100916.69;4978578;28;20057;-79
2023/11/16 01:38:00;;;;;;;16.20;5.75;;;;;;;8.53;100.00;100913.50;4976933;28;20055;-78
2023/11/16 01:40:28;;;;;;;14.23;4.82;;;;;;;8.59;100.00;100925.19;4979451;28;20047;-78
2023/11/16 01:42:56;;;;;;;17.80;4.20;;;;;;;8.68;100.00;100919.16;4976680;28;20055;-78
2023/11/16 01:45:29;;;;;;;15.38;5.50;;;;;;;8.71;100.00;100912.84;4976349;28;20062;-78
2023/11/16 01:48:00;;;;;;;15.35;4.65;;;;;;;8.67;100.00;100914.91;4981160;28;20145;-78
2023/11/16 01:50:29;;;;;;;16.88;5.40;;;;;;;8.70;100.00;100916.41;4981145;28;20050;-79
2023/11/16 01:53:04;;;;;;;13.48;4.25;;;;;;;8.73;100.00;100914.34;4979795;28;20505;-79
2023/11/16 01:55:32;;;;;;;17.27;5.20;;;;;;;8.74;100.00;100912.56;4981607;28;20055;-79
2023/11/16 01:58:02;;;;;;;20.58;5.38;;;;;;;8.75;100.00;100924.66;4979188;28;20134;-79
2023/11/16 02:00:29;;;;;;;16.35;4.82;;;;;;;8.75;100.00;100914.22;4981019;28;20047;-80
2023/11/16 02:03:00;;;;;;;17.95;4.40;;;;;;;8.72;100.00;100906.66;4977074;28;20389;-78
2023/11/16 02:05:28;;;;;;;9.95;4.10;;;;;;;8.64;100.00;100920.38;4978339;28;20047;-78
2023/11/16 02:07:55;;;;;;;15.05;4.50;;;;;;;8.81;100.00;100916.28;4977848;28;20082;-79
2023/11/16 02:10:21;;;;;;;12.80;4.35;;;;;;;8.68;100.00;100920.94;4978515;28;20496;-78
2023/11/16 02:12:54;;;;;;;17.27;4.68;;;;;;;8.76;100.00;100927.13;4979285;28;20050;-78
2023/11/16 02:15:21;;;;;;;15.32;4.90;;;;;;;8.69;100.00;100912.97;4976317;28;20133;-77
2023/11/16 02:17:49;;;;;;;12.63;5.45;;;;;;;8.69;100.00;100909.56;4969133;28;20059;-78
2023/11/16 02:20:18;;;;;;;16.33;4.50;;;;;;;8.72;100.00;100904.88;4974553;28;20051;-79
2023/11/16 02:22:48;;;;;;;15.95;4.75;;;;;;;8.77;100.00;100918.34;4975615;28;20051;-79
2023/11/16 02:25:17;;;;;;;16.75;4.50;;;;;;;8.78;100.00;100914.78;4975281;28;20134;-79
2023/11/16 02:27:44;;;;;;;15.10;5.20;;;;;;;8.77;100.00;100912.31;4976107;28;20105;-79
2023/11/16 02:30:12;;;;;;;15.68;4.97;;;;;;;8.72;100.00;100909.28;4975168;28;20125;-79
2023/11/16 02:32:39;;;;;;;13.68;4.60;;;;;;;8.70;100.00;100901.59;4975384;28;20476;-78
2023/11/16 02:35:06;;;;;;;15.48;5.85;;;;;;;8.72;100.00;100898.84;4976136;28;20134;-78
2023/11/16 02:37:33;;;;;;;17.08;4.78;;;;;;;8.71;100.00;100905.03;4975189;28;20078;-77
2023/11/16 02:40:00;;;;;;;16.02;5.22;;;;;;;8.74;100.00;100909.97;4975239;28;20154;-78
2023/11/16 02:42:28;;;;;;;15.45;5.15;;;;;;;8.82;100.00;100900.50;4974703;28;20145;-77
2023/11/16 02:44:57;;;;;;;15.05;5.00;;;;;;;8.86;100.00;100896.66;4971473;28;20430;-78
2023/11/16 02:47:24;;;;;;;12.07;4.63;;;;;;;8.78;100.00;100888.69;4969043;28;20047;-78
2023/11/16 02:49:51;;;;;;;16.70;4.55;;;;;;;8.91;100.00;100889.22;4975459;28;20135;-78
2023/11/16 02:52:18;;;;;;;12.63;4.72;;;;;;;8.86;100.00;100891.44;4975874;28;20129;-78
2023/11/16 02:54:44;;;;;;;16.52;4.60;;;;;;;8.87;100.00;100887.03;4975840;28;20134;-78
2023/11/16 02:57:12;;;;;;;11.80;5.43;;;;;;;8.76;100.00;100885.38;4973954;28;20113;-78
2023/11/16 02:59:39;;;;;;;15.95;5.47;;;;;;;9.00;100.00;100895.38;4974191;28;20043;-78
2023/11/16 03:02:06;;;;;;;15.65;4.43;;;;;;;8.90;100.00;100891.97;4974231;28;20086;-78
2023/11/16 03:04:33;;;;;;;16.02;4.57;;;;;;;8.80;100.00;100891.16;4974267;28;20093;-78
2023/11/16 03:07:00;;;;;;;18.42;4.75;;;;;;;8.81;100.00;100890.19;4974154;28;20081;-78
2023/11/16 03:09:27;;;;;;;15.32;4.75;;;;;;;8.85;100.00;100881.94;4971302;28;20435;-79
2023/11/16 03:11:54;;;;;;;17.83;4.65;;;;;;;8.70;100.00;100874.69;4976637;28;20050;-79
2023/11/16 03:14:20;;;;;;;18.65;5.20;;;;;;;8.81;100.00;100892.81;4978680;28;20074;-78
2023/11/16 03:16:49;;;;;;;17.02;5.20;;;;;;;8.82;100.00;100889.22;4973633;28;20570;-80
2023/11/16 03:19:16;;;;;;;19.20;4.30;;;;;;;8.75;100.00;100888.97;4978423;28;20071;-79
2023/11/16 03:21:42;;;;;;;13.15;4.43;;;;;;;8.69;100.00;100879.06;4978844;28;20073;-79
2023/11/16 03:24:12;;;;;;;15.25;4.72;;;;;;;8.75;100.00;100873.31;4979768;28;20130;-79
2023/11/16 03:26:39;;;;;;;13.98;4.40;;;;;;;8.80;100.00;100889.38;4979736;28;20051;-79
2023/11/16 03:29:06;;;;;;;11.45;4.55;;;;;;;8.67;100.00;100886.22;4978995;28;20051;-79
2023/11/16 03:31:35;;;;;;;18.38;4.60;;;;;;;8.71;100.00;100898.03;4978042;28;20130;-78
2023/11/16 03:34:04;;;;;;;14.52;4.82;;;;;;;8.75;100.00;100888.97;4977592;28;20149;-78
2023/11/16 03:36:30;;;;;;;17.92;5.68;;;;;;;8.76;100.00;100884.56;4974704;28;20191;-77
2023/11/16 03:38:58;;;;;;;12.85;4.63;;;;;;;8.74;100.00;100884.69;4975207;28;20117;-77
2023/11/16 03:41:24;;;;;;;14.60;4.78;;;;;;;8.70;100.00;100885.13;4969639;28;20479;-78
2023/11/16 03:43:51;;;;;;;17.10;4.93;;;;;;;8.59;100.00;100881.66;4975684;28;20085;-79
2023/11/16 03:46:17;;;;;;;14.10;4.55;;;;;;;8.56;100.00;100881.94;4978413;28;20079;-79
2023/11/16 03:48:44;;;;;;;18.83;4.93;;;;;;;8.45;100.00;100876.88;4975330;28;20051;-77
2023/11/16 03:51:16;;;;;;;14.98;5.22;;;;;;;8.52;100.00;100872.75;4967507;28;20119;-78
2023/11/16 03:53:43;;;;;;;17.08;5.03;;;;;;;8.52;100.00;100875.34;4976712;28;20061;-79
2023/11/16 03:56:09;;;;;;;18.52;5.47;;;;;;;8.45;100.00;100873.44;4978673;28;20066;-78
2023/11/16 03:58:36;;;;;;;13.45;5.18;;;;;;;8.33;100.00;100877.97;4978751;28;20083;-79
2023/11/16 04:01:03;;;;;;;15.75;5.18;;;;;;;8.34;100.00;100873.56;4975558;28;20146;-79
2023/11/16 04:03:31;;;;;;;13.15;5.20;;;;;;;8.38;100.00;100874.94;4987765;28;20062;-77
2023/11/16 04:05:59;;;;;;;22.75;5.60;;;;;;;8.37;100.00;100878.50;4989688;28;20451;-79
2023/11/16 04:08:27;;;;;;;14.88;6.05;;;;;;;8.25;100.00;100869.97;4987259;28;20046;-78
2023/11/16 04:10:54;;;;;;;19.25;5.85;;;;;;;8.29;100.00;100866.13;4987281;28;20050;-80
2023/11/16 04:13:20;;;;;;;15.55;5.32;;;;;;;8.27;100.00;100862.81;4986362;28;20062;-78
2023/11/16 04:15:47;;;;;;;11.95;4.68;;;;;;;8.20;100.00;100862.53;4977785;28;20077;-79
2023/11/16 04:18:14;;;;;;;14.00;5.22;;;;;;;8.19;100.00;100863.50;4977340;28;20154;-79
2023/11/16 04:20:40;;;;;;;15.07;5.20;;;;;;;8.26;100.00;100867.22;4977344;28;20505;-79
2023/11/16 04:23:07;;;;;;;17.02;5.22;;;;;;;8.26;100.00;100859.41;4976221;28;20066;-77
2023/11/16 04:25:36;;;;;;;18.70;6.93;;;;;;;8.18;100.00;100869.66;4976591;28;20142;-79
2023/11/16 04:28:04;;;;;;;17.30;5.80;;;;;;;8.22;100.00;100865.84;4970216;28;20058;-78
2023/11/16 04:30:31;;;;;;;13.48;5.25;;;;;;;8.25;100.00;100870.78;4976102;28;20062;-78
2023/11/16 04:32:58;;;;;;;18.52;5.18;;;;;;;8.15;100.00;100869.09;4969698;28;20164;-78
2023/11/16 04:35:25;;;;;;;19.45;5.00;;;;;;;8.15;100.00;100871.72;4976004;28;20129;-79
2023/11/16 04:37:53;;;;;;;13.25;5.20;;;;;;;8.22;100.00;100872.84;4979323;28;20358;-79
2023/11/16 04:40:22;;;;;;;13.73;5.53;;;;;;;8.10;100.00;100861.69;4979683;28;20078;-78
2023/11/16 04:42:50;;;;;;;17.52;5.43;;;;;;;8.15;100.00;100864.72;4981623;28;20466;-78
2023/11/16 04:45:18;;;;;;;16.58;8.02;;;;;;;8.15;100.00;100863.91;4983380;28;20224;-79
2023/11/16 04:47:46;;;;;;;15.30;5.90;;;;;;;8.00;100.00;100866.09;4982706;28;20077;-79
2023/11/16 04:50:16;;;;;;;18.33;5.85;;;;;;;8.10;100.00;100869.50;4982235;28;20066;-77
2023/11/16 04:52:43;;;;;;;20.95;6.07;;;;;;;7.97;100.00;100861.13;4982294;28;20106;-79
2023/11/16 04:55:10;;;;;;;15.75;5.10;;;;;;;7.95;100.00;100856.06;4972970;28;20138;-76
2023/11/16 04:57:37;;;;;;;13.48;4.72;;;;;;;7.93;100.00;100854.53;4978615;28;20473;-79
2023/11/16 05:00:10;;;;;;;12.52;4.78;;;;;;;7.96;100.00;100859.50;4978283;28;20110;-78
2023/11/16 05:02:37;;;;;;;10.98;4.80;;;;;;;7.83;100.00;100848.47;4978707;28;20058;-78
2023/11/16 05:05:04;;;;;;;12.35;5.05;;;;;;;7.81;100.00;100856.41;4978231;28;20055;-78
2023/11/16 05:07:31;;;;;;;15.90;4.90;;;;;;;7.75;100.00;100853.53;4978067;28;20093;-78
2023/11/16 05:09:58;;;;;;;10.80;4.78;;;;;;;7.65;100.00;100856.91;4980143;28;20083;-77
2023/11/16 05:12:25;;;;;;;17.00;4.90;;;;;;;7.62;100.00;100864.16;4975960;28;20078;-79
2023/11/16 05:14:53;;;;;;;19.42;6.28;;;;;;;7.53;100.00;100855.38;4980840;28;20087;-78
2023/11/16 05:17:21;;;;;;;14.38;4.82;;;;;;;7.58;100.00;100865.38;4972603;28;20062;-78
2023/11/16 05:19:48;;;;;;;19.38;4.78;;;;;;;7.55;100.00;100861.28;4981697;28;20139;-78
2023/11/16 05:22:15;;;;;;;27.25;5.15;;;;;;;7.48;100.00;100857.53;4972825;28;20518;-78
2023/11/16 05:24:43;;;;;;;15.48;4.88;;;;;;;7.40;100.00;100865.19;4978239;28;20054;-78
2023/11/16 05:27:09;;;;;;;14.38;4.88;;;;;;;7.52;100.00;100866.75;4980722;28;20065;-77
2023/11/16 05:29:36;;;;;;;15.05;4.88;;;;;;;7.41;100.00;100843.41;4977561;28;20088;-78
2023/11/16 05:32:03;;;;;;;10.73;4.95;;;;;;;7.45;100.00;100850.00;4977950;28;20054;-78
2023/11/16 05:34:31;;;;;;;14.82;4.63;;;;;;;7.43;100.00;100851.91;4978090;28;20047;-78
2023/11/16 05:36:57;;;;;;;13.35;5.22;;;;;;;7.42;100.00;100845.03;4976540;28;20082;-78
2023/11/16 05:39:24;;;;;;;13.65;4.82;;;;;;;7.41;100.00;100843.41;4979909;28;20110;-79
2023/11/16 05:41:51;;;;;;;15.40;5.28;;;;;;;7.44;100.00;100848.34;4978824;28;20082;-78
2023/11/16 05:44:18;;;;;;;12.93;5.03;;;;;;;7.40;100.00;100852.16;4977183;28;20106;-78
2023/11/16 05:46:45;;;;;;;14.90;6.00;;;;;;;7.43;100.00;100857.09;4978694;28;20122;-78
2023/11/16 05:49:11;;;;;;;14.55;5.30;;;;;;;7.43;100.00;100859.72;4976967;28;20261;-77
2023/11/16 05:51:39;;;;;;;11.77;5.10;;;;;;;7.48;100.00;100849.72;4980055;28;20054;-80
2023/11/16 05:54:07;;;;;;;15.82;5.10;;;;;;;7.49;100.00;100861.81;4978413;28;20046;-80
2023/11/16 05:56:36;;;;;;;18.17;5.28;;;;;;;7.51;100.00;100854.69;4976501;28;20058;-79
2023/11/16 05:59:04;;;;;;;14.73;5.28;;;;;;;7.54;100.00;100849.22;4977032;28;20141;-80
2023/11/16 06:01:31;;;;;;;21.88;11.80;;;;;;;7.48;100.00;100828.09;4975442;28;20069;-77
2023/11/16 06:03:57;;;;;;;15.98;5.20;;;;;;;7.27;100.00;100825.50;4977493;28;20082;-79
2023/11/16 06:06:24;;;;;;;18.63;5.53;;;;;;;7.23;100.00;100827.53;4973329;28;20050;-78
2023/11/16 06:08:52;;;;;;;14.75;5.13;;;;;;;7.34;100.00;100829.25;4975549;28;20188;-78
2023/11/16 06:11:18;;;;;;;14.93;4.85;;;;;;;7.46;100.00;100822.19;4972626;28;20097;-78
2023/11/16 06:13:45;;;;;;;13.63;4.57;;;;;;;7.46;100.00;100830.81;4977922;28;20090;-77
2023/11/16 06:16:12;;;;;;;14.20;5.22;;;;;;;7.42;100.00;100820.78;4979615;28;20086;-77
2023/11/16 06:18:39;;;;;;;15.60;5.32;;;;;;;7.50;100.00;100826.16;4975271;28;20390;-76
2023/11/16 06:21:06;;;;;;;13.40;4.60;;;;;;;7.46;100.00;100822.19;4974737;28;20121;-78
2023/11/16 06:23:33;;;;;;;16.05;5.00;;;;;;;7.60;100.00;100821.78;4975093;28;20089;-78
2023/11/16 06:26:02;;;;;;;8.63;4.55;;;;;;;7.74;100.00;100818.84;4971973;28;20082;-78
2023/11/16 06:28:28;;;;;;;12.90;4.78;;;;;;;7.80;100.00;100822.69;4977450;28;20058;-77
2023/11/16 06:30:55;;;;;;;11.77;4.78;;;;;;;7.77;100.00;100815.97;4976575;28;20085;-77
2023/11/16 06:33:22;;;;;;;11.60;4.72;;;;;;;7.80;100.00;100801.84;4975940;28;20055;-78
2023/11/16 06:35:49;;;;;;;12.07;5.00;;;;;;;7.71;100.00;100810.47;4977496;28;20051;-77
2023/11/16 06:38:16;;;;;;;13.40;4.65;;;;;;;7.83;100.00;100805.00;4977585;28;20047;-78
2023/11/16 06:40:43;;;;;;;12.43;4.57;;;;;;;7.88;100.00;100799.41;4976673;28;20113;-78
2023/11/16 06:43:12;;;;;;;15.88;5.20;;;;;;;8.06;100.00;100789.94;4973654;28;20468;-78
2023/11/16 06:45:41;;;;;;;13.48;5.10;;;;;;;7.65;100.00;100804.81;4977483;28;20046;-78
2023/11/16 06:48:08;;;;;;;14.10;4.97;;;;;;;7.65;100.00;100809.19;4977336;28;20073;-79
2023/11/16 06:50:36;;;;;;;15.30;5.05;;;;;;;7.61;100.00;100805.22;4978342;28;20054;-78
2023/11/16 06:53:05;;;;;;;10.63;4.30;;;;;;;7.84;100.00;100808.44;4978574;28;20050;-79
2023/11/16 06:55:33;;;;;;;14.27;5.40;;;;;;;7.66;100.00;100803.03;4973328;28;20110;-78
2023/11/16 06:58:00;;;;;;;9.52;4.25;;;;;;;7.69;100.00;100794.97;4973539;28;20081;-78
2023/11/16 07:00:30;;;;;;;9.68;4.70;;;;;;;7.89;100.00;100785.41;4977841;28;20062;-77
2023/11/16 07:02:57;;;;;;;11.32;4.40;;;;;;;7.98;100.00;100779.41;4974855;28;20055;-77
2023/11/16 07:05:24;;;;;;;11.25;4.55;;;;;;;8.01;100.00;100767.88;4973973;28;20085;-78
2023/11/16 07:07:51;;;;;;;14.35;4.40;;;;;;;8.12;100.00;100776.38;4974142;28;20051;-77
2023/11/16 07:10:17;;;;;;;11.73;4.50;;;;;;;8.12;100.00;100760.72;4968029;28;20062;-78
2023/11/16 07:12:47;;;;;;;10.10;4.78;;;;;;;8.19;100.00;100761.84;4975910;28;20086;-78
2023/11/16 07:15:13;;;;;;;17.83;4.30;;;;;;;8.14;100.00;100758.81;4975249;28;20050;-77
2023/11/16 07:17:41;;;;;;;9.50;3.80;;;;;;;8.26;100.00;100749.06;4972102;28;20039;-77
2023/11/16 07:20:11;;;;;;;13.30;4.85;;;;;;;8.27;100.00;100745.50;4974478;28;20126;-78
2023/11/16 07:22:38;;;;;;;17.23;4.70;;;;;;;8.26;100.00;100730.81;4974427;28;20051;-77
2023/11/16 07:25:07;;;;;;;15.55;5.22;;;;;;;8.27;100.00;100733.28;4966672;28;20070;-78
2023/11/16 07:27:34;;;;;;;13.52;4.50;;;;;;;8.28;100.00;100716.69;4973009;28;20055;-78
2023/11/16 07:30:01;;;;;;;21.30;11.70;;;;;;;8.26;100.00;100705.59;4972549;28;20051;-78
2023/11/16 07:32:28;;;;;;;12.85;4.75;;;;;;;8.37;100.00;100706.44;4973891;28;20047;-78
2023/11/16 07:34:56;;;;;;;11.23;4.35;;;;;;;8.36;100.00;100704.78;4973873;28;20527;-78
2023/11/16 07:37:23;;;;;;;12.13;4.13;;;;;;;8.26;100.00;100694.34;4974027;28;20073;-79
2023/11/16 07:39:50;;;;;;;10.98;5.28;;;;;;;8.29;100.00;100699.28;4972734;28;20047;-77
2023/11/16 07:42:17;;;;;;;17.23;5.13;;;;;;;8.34;100.00;100701.50;4970181;28;20113;-78
2023/11/16 07:44:44;;;;;;;17.50;5.10;;;;;;;8.44;100.00;100690.09;4988268;28;20050;-76
2023/11/16 07:47:11;;;;;;;7.97;4.43;;;;;;;8.35;100.00;100692.72;4980598;28;20425;-77
2023/11/16 07:49:38;;;;;;;10.43;4.78;;;;;;;8.45;100.00;100698.72;4970009;28;20094;-77
2023/11/16 07:52:07;;;;;;;20.23;5.38;;;;;;;8.40;100.00;100695.72;4965257;28;20050;-78
2023/11/16 07:54:35;;;;;;;9.00;4.88;;;;;;;8.55;100.00;100699.50;4972507;28;20051;-77
2023/11/16 07:57:02;;;;;;;11.95;4.85;;;;;;;8.67;99.89;100694.94;4969299;28;20085;-78
2023/11/16 07:59:32;;;;;;;11.32;4.40;;;;;;;8.68;99.17;100691.38;4963754;28;20057;-78
2023/11/16 08:02:00;;;;;;;10.02;4.32;;;;;;;8.56;98.50;100680.28;4972081;28;20102;-78
2023/11/16 08:04:26;;;;;;;8.45;4.40;;;;;;;8.69;98.59;100693.03;4969454;28;20109;-79
2023/11/16 08:06:53;;;;;;;10.07;4.47;;;;;;;8.55;98.11;100684.69;4975242;28;20461;-79
2023/11/16 08:09:23;;;;;;;12.48;4.63;;;;;;;8.39;98.64;100678.44;4974827;28;20139;-79
2023/11/16 08:11:53;;;;;;;10.35;4.90;;;;;;;8.35;98.88;100682.28;4973816;28;20071;-79
2023/11/16 08:14:21;;;;;;;9.77;5.45;;;;;;;8.52;99.20;100689.34;4974269;28;20418;-79
2023/11/16 08:16:49;;;;;;;11.40;4.45;;;;;;;8.71;98.60;100689.31;4960581;28;20061;-79
2023/11/16 08:19:15;;;;;;;9.55;4.10;;;;;;;9.05;97.72;100686.16;4965849;28;20058;-78
2023/11/16 08:21:42;;;;;;;12.48;4.28;;;;;;;9.20;96.92;100674.25;4973311;28;20137;-78
2023/11/16 08:24:10;;;;;;;11.32;4.22;;;;;;;8.99;96.46;100659.66;4973621;28;20134;-78
2023/11/16 08:26:38;;;;;;;9.55;4.38;;;;;;;9.15;96.70;100661.63;4974167;28;20129;-79
2023/11/16 08:29:05;;;;;;;12.73;4.88;;;;;;;9.38;96.80;100671.69;4966604;28;20078;-78
2023/11/16 08:31:32;;;;;;;12.15;4.95;;;;;;;9.40;96.02;100665.34;4974007;28;20485;-78
2023/11/16 08:33:58;;;;;;;10.13;4.85;;;;;;;9.46;94.82;100654.28;4972320;28;20059;-78
2023/11/16 08:36:25;;;;;;;12.80;4.50;;;;;;;9.34;94.65;100658.09;4972019;28;20142;-78
2023/11/16 08:38:52;;;;;;;10.45;4.50;;;;;;;9.19;94.52;100657.78;4975295;28;20054;-79
2023/11/16 08:41:18;;;;;;;16.35;4.50;;;;;;;9.21;94.48;100666.28;4973584;28;20055;-78
2023/11/16 08:43:47;;;;;;;9.23;4.28;;;;;;;9.35;93.90;100662.34;4973152;28;20105;-78
2023/11/16 08:46:20;;;;;;;13.40;4.28;;;;;;;9.19;94.14;100664.78;4973862;28;20079;-79
2023/11/16 08:48:47;;;;;;;13.00;4.30;;;;;;;9.32;93.18;100665.25;4970248;28;20047;-78
2023/11/16 08:51:16;;;;;;;10.45;4.45;;;;;;;9.38;92.89;100654.22;4971114;28;20176;-78
2023/11/16 08:53:44;;;;;;;7.00;4.07;;;;;;;9.10;93.51;100658.63;4972587;28;20063;-78
2023/11/16 08:56:11;;;;;;;15.63;5.43;;;;;;;9.08;93.85;100652.75;4971921;28;20130;-78
2023/11/16 08:58:47;;;;;;;9.13;4.60;;;;;;;9.13;94.45;100657.53;4959070;28;20086;-78
2023/11/16 09:01:17;;;;;;;13.50;4.75;;;;;;;9.78;93.02;100663.41;4971846;28;20328;-78
2023/11/16 09:03:45;;;;;;;13.10;4.20;;;;;;;9.64;91.61;100629.00;4976879;28;20054;-78
2023/11/16 09:06:16;;;;;;;12.10;4.35;;;;;;;9.74;91.73;100638.56;4976011;28;20078;-78
2023/11/16 09:08:42;;;;;;;13.15;4.30;;;;;;;9.63;89.89;100618.69;4973742;28;20057;-79
2023/11/16 09:11:11;;;;;;;11.88;4.22;;;;;;;9.50;90.95;100623.47;4973007;28;20074;-78
2023/11/16 09:13:41;;;;;;;11.68;4.20;;;;;;;9.51;91.15;100628.53;4972852;28;20129;-78
2023/11/16 09:16:09;;;;;;;11.05;4.10;;;;;;;9.16;91.50;100626.72;4974373;28;20135;-78
2023/11/16 09:18:38;;;;;;;9.80;4.80;;;;;;;9.01;93.31;100632.59;4973048;28;20043;-78
2023/11/16 09:21:06;;;;;;;10.23;4.95;;;;;;;9.11;93.87;100639.41;4973015;28;20051;-78
2023/11/16 09:23:33;;;;;;;12.25;4.50;;;;;;;9.28;93.27;100622.94;4973663;28;20083;-81
2023/11/16 09:26:00;;;;;;;10.60;4.60;;;;;;;9.32;93.32;100633.91;4974904;28;20055;-78
2023/11/16 09:28:28;;;;;;;7.22;4.32;;;;;;;9.36;92.18;100617.00;4971937;28;20046;-78
2023/11/16 09:30:57;;;;;;;20.23;4.85;;;;;;;9.08;92.64;100618.00;4975273;28;20070;-78
2023/11/16 09:33:23;;;;;;;10.43;4.22;;;;;;;9.36;93.04;100627.44;4972358;28;20269;-78
2023/11/16 09:35:54;;;;;;;9.18;5.10;;;;;;;9.51;93.00;100620.72;4976628;28;20089;-78
2023/11/16 09:38:21;;;;;;;9.63;5.10;;;;;;;9.70;91.63;100603.25;4977243;28;20090;-78
2023/11/16 09:40:49;;;;;;;14.05;4.85;;;;;;;9.48;91.17;100594.06;4978467;28;20075;-77
2023/11/16 09:43:20;;;;;;;8.80;4.70;;;;;;;9.73;90.47;100585.47;4977977;28;20138;-78
2023/11/16 09:45:48;;;;;;;11.80;4.57;;;;;;;9.75;90.65;100585.31;4973302;28;20098;-78
2023/11/16 09:48:20;;;;;;;13.00;4.75;;;;;;;9.87;90.52;100584.94;4976901;28;20051;-78
2023/11/16 09:50:48;;;;;;;9.35;4.70;;;;;;;9.56;90.16;100584.50;4977206;28;20047;-78
2023/11/16 09:53:17;;;;;;;10.13;5.35;;;;;;;9.87;90.10;100579.72;4976646;28;20118;-78
2023/11/16 09:55:49;;;;;;;11.43;5.47;;;;;;;9.80;90.13;100573.44;4975496;28;20058;-78
2023/11/16 09:58:21;;;;;;;15.83;5.40;;;;;;;9.78;90.76;100574.56;4966265;28;20130;-78
2023/11/16 10:00:52;;;;;;;7.20;3.80;;;;;;;9.88;90.72;100578.72;4976851;28;20046;-78
2023/11/16 10:03:26;;;;;;;14.82;5.65;;;;;;;9.80;91.00;100570.00;4976222;28;20199;-78
2023/11/16 10:05:55;;;;;;;14.02;5.85;;;;;;;9.57;90.93;100561.81;4976683;28;20092;-78
2023/11/16 10:08:27;;;;;;;13.43;5.70;;;;;;;9.60;91.54;100557.13;4976020;28;20137;-78
2023/11/16 10:11:00;;;;;;;13.10;5.53;;;;;;;9.76;92.34;100556.44;4976142;28;20494;-78
2023/11/16 10:13:27;;;;;;;14.45;5.70;;;;;;;9.65;92.16;100549.66;4976736;28;20126;-78
2023/11/16 10:16:06;;;;;;;15.35;5.95;;;;;;;9.52;92.53;100554.44;4976758;28;20097;-78
2023/11/16 10:18:33;;;;;;;16.98;6.20;;;;;;;9.41;92.07;100536.41;4976478;28;20042;-78
2023/11/16 10:21:00;;;;;;;20.83;6.13;;;;;;;9.25;92.01;100533.66;4975572;28;20090;-78
2023/11/16 10:23:30;;;;;;;10.77;5.50;;;;;;;9.39;92.57;100529.69;4975439;28;20090;-78
2023/11/16 10:25:59;;;;;;;12.77;5.45;;;;;;;9.39;92.16;100522.69;4976583;28;20492;-78
2023/11/16 10:28:27;;;;;;;17.83;5.47;;;;;;;9.32;92.27;100519.03;4976139;28;20132;-79
2023/11/16 10:30:57;;;;;;;15.15;5.90;;;;;;;9.50;92.50;100524.22;4978129;28;20489;-78
2023/11/16 10:33:25;;;;;;;12.63;6.40;;;;;;;9.64;91.97;100515.84;4974355;28;20551;-77
2023/11/16 10:35:55;;;;;;;18.05;6.72;;;;;;;9.61;91.78;100501.28;4974320;28;20142;-77
2023/11/16 10:38:22;;;;;;;17.60;6.80;;;;;;;9.72;91.67;100495.00;4976226;28;20047;-78
2023/11/16 10:40:52;;;;;;;16.05;7.53;;;;;;;9.72;91.68;100497.59;4975099;28;20133;-77
2023/11/16 10:43:22;;;;;;;17.17;6.70;;;;;;;9.67;91.79;100488.59;4975407;28;20066;-77
2023/11/16 10:45:52;;;;;;;13.77;7.20;;;;;;;9.80;91.76;100504.69;4975612;28;20047;-78
2023/11/16 10:48:19;;;;;;;16.08;7.32;;;;;;;9.72;91.84;100496.78;4975553;28;20057;-78
2023/11/16 10:50:46;;;;;;;17.08;8.10;;;;;;;9.37;92.77;100502.91;4977776;28;20065;-78
2023/11/16 10:53:18;;;;;;;16.45;7.28;;;;;;;9.38;93.84;100505.38;4977244;28;20526;-78
2023/11/16 10:55:49;;;;;;;18.73;7.93;;;;;;;9.30;93.85;100502.69;4977320;28;20528;-78
2023/11/16 10:58:20;;;;;;;19.58;8.75;;;;;;;9.33;94.17;100491.94;4977446;28;20138;-78
2023/11/16 11:00:53;;;;;;;12.02;7.40;;;;;;;9.24;94.81;100490.22;4977398;28;20395;-78
2023/11/16 11:03:21;;;;;;;17.80;8.05;;;;;;;9.39;94.55;100499.19;4979280;28;20319;-78
2023/11/16 11:05:52;;;;;;;16.88;7.65;;;;;;;9.39;94.42;100491.34;4974495;28;20119;-79
2023/11/16 11:08:19;;;;;;;17.15;7.60;;;;;;;9.51;93.78;100494.50;4969783;28;20103;-79
2023/11/16 11:10:47;;;;;;;17.90;7.65;;;;;;;9.40;93.84;100485.16;4978712;28;20063;-79
2023/11/16 11:13:16;;;;;;;14.30;7.45;;;;;;;9.49;93.40;100488.63;4978564;28;20062;-79
2023/11/16 11:15:48;;;;;;;14.95;6.85;;;;;;;9.23;94.37;100501.66;4978327;28;20046;-78
2023/11/16 11:18:25;;;;;;;15.30;7.38;;;;;;;9.28;94.97;100502.03;4977658;28;20129;-79
2023/11/16 11:20:53;;;;;;;15.05;7.43;;;;;;;9.29;95.40;100490.59;4977910;28;20057;-79
2023/11/16 11:23:20;;;;;;;18.17;7.15;;;;;;;9.19;95.33;100489.88;4976432;28;20069;-79